Time;durP1;ratioP1;P1;durP2;ratioP2;P2;SDS_P1;SDS_P2;PMS_P1;PMS_P2;Temp;Humidity;BMP_temperature;BMP_pressure;BME280_temperature;BME280_humidity;BME280_pressure;Samples;Min_cycle;Max_cycle;Signal;HPM_P1;HPM_P2
2021/04/10 00:00:21;;;;;;;4.33;3.20;;;;;;;;;;5053008;28;20821;-70
2021/04/10 00:02:48;;;;;;;8.23;3.80;;;;;;;;;;5051919;28;20453;-71
2021/04/10 00:05:15;;;;;;;7.60;3.70;;;;;;;;;;5052652;28;20421;-70
2021/04/10 00:07:41;;;;;;;5.97;3.20;;;;;;;;;;5052349;28;20447;-71
2021/04/10 00:10:08;;;;;;;9.83;3.10;;;;;;;;;;5052863;28;20411;-68
2021/04/10 00:12:34;;;;;;;6.43;3.67;;;;;;;;;;5053138;28;20530;-70
2021/04/10 00:15:00;;;;;;;5.47;3.07;;;;;;;;;;5052404;28;20818;-70
2021/04/10 00:17:26;;;;;;;10.07;3.23;;;;;;;;;;5053091;28;20433;-69
2021/04/10 00:19:52;;;;;;;4.50;3.37;;;;;;;;;;5052275;28;20461;-70
2021/04/10 00:22:18;;;;;;;9.87;2.90;;;;;;;;;;5057348;28;20495;-70
2021/04/10 00:24:44;;;;;;;4.83;3.20;;;;;;;;;;5056485;28;20481;-70
2021/04/10 00:27:10;;;;;;;8.60;3.10;;;;;;;;;;5057379;28;20889;-70
2021/04/10 00:29:36;;;;;;;6.70;3.70;;;;;;;;;;5056581;28;20431;-70
2021/04/10 00:32:02;;;;;;;6.63;2.67;;;;;;;;;;5057364;28;20586;-70
2021/04/10 00:34:28;;;;;;;4.13;2.70;;;;;;;;;;5055432;28;20440;-70
2021/04/10 00:36:54;;;;;;;4.90;3.03;;;;;;;;;;5056901;28;20416;-70
2021/04/10 00:39:20;;;;;;;5.50;2.80;;;;;;;;;;5055253;28;20833;-70
2021/04/10 00:41:46;;;;;;;4.97;3.10;;;;;;;;;;5056456;28;20483;-70
2021/04/10 00:44:12;;;;;;;10.87;3.47;;;;;;;;;;5065804;28;20423;-70
2021/04/10 00:46:38;;;;;;;3.77;2.63;;;;;;;;;;5076946;28;20975;-70
2021/04/10 00:49:04;;;;;;;7.20;3.30;;;;;;;;;;5074797;28;20428;-70
2021/04/10 00:51:30;;;;;;;4.43;3.07;;;;;;;;;;5076970;28;20485;-70
2021/04/10 00:53:56;;;;;;;4.70;3.20;;;;;;;;;;5075100;28;20787;-70
2021/04/10 00:56:22;;;;;;;3.70;2.80;;;;;;;;;;5076722;28;20399;-70
2021/04/10 00:58:48;;;;;;;4.80;3.33;;;;;;;;;;5068748;28;20981;-69
2021/04/10 01:01:15;;;;;;;7.10;2.80;;;;;;;;;;5056200;28;20445;-70
2021/04/10 01:03:41;;;;;;;5.10;3.27;;;;;;;;;;5055755;28;20424;-70
2021/04/10 01:06:08;;;;;;;6.97;2.67;;;;;;;;;;5038927;28;20412;-70
2021/04/10 01:08:34;;;;;;;9.97;3.20;;;;;;;;;;5055912;28;20424;-70
2021/04/10 01:11:11;;;;;;;4.60;2.90;;;;;;;;;;5056905;28;20412;-71
2021/04/10 01:13:51;;;;;;;5.00;3.23;;;;;;;;;;5054583;28;20433;-71
2021/04/10 01:16:25;;;;;;;4.73;2.97;;;;;;;;;;5057127;28;20527;-69
2021/04/10 01:18:58;;;;;;;3.30;2.47;;;;;;;;;;5055080;28;20944;-69
2021/04/10 01:21:44;;;;;;;4.40;2.50;;;;;;;;;;5076477;28;20605;-70
2021/04/10 01:24:29;;;;;;;5.47;3.40;;;;;;;;;;5073898;28;20429;-70
2021/04/10 01:27:07;;;;;;;4.03;3.13;;;;;;;;;;5077224;28;20705;-70
2021/04/10 01:29:37;;;;;;;5.57;2.47;;;;;;;;;;5074237;28;20460;-70
2021/04/10 01:32:03;;;;;;;5.83;2.43;;;;;;;;;;5076463;28;20931;-70
2021/04/10 01:34:35;;;;;;;6.07;2.70;;;;;;;;;;5068806;28;20432;-70
2021/04/10 01:37:06;;;;;;;6.00;2.83;;;;;;;;;;5056077;28;20794;-69
2021/04/10 01:39:33;;;;;;;7.53;2.90;;;;;;;;;;5055340;28;20969;-70
2021/04/10 01:42:01;;;;;;;6.90;3.10;;;;;;;;;;5056131;28;20487;-69
2021/04/10 01:44:27;;;;;;;8.20;3.37;;;;;;;;;;5054895;28;20792;-69
2021/04/10 01:46:54;;;;;;;6.70;2.77;;;;;;;;;;5055890;28;20425;-70
2021/04/10 01:49:20;;;;;;;7.17;3.23;;;;;;;;;;5058442;28;20432;-69
2021/04/10 01:51:47;;;;;;;4.33;2.80;;;;;;;;;;5070774;28;20427;-71
2021/04/10 01:54:13;;;;;;;3.27;2.27;;;;;;;;;;5052282;28;20430;-71
2021/04/10 01:56:42;;;;;;;4.67;2.83;;;;;;;;;;5035548;28;20910;-70
2021/04/10 01:59:09;;;;;;;4.10;2.90;;;;;;;;;;5037337;28;20907;-71
2021/04/10 02:01:35;;;;;;;4.97;3.27;;;;;;;;;;5054909;28;20523;-70
2021/04/10 02:04:02;;;;;;;4.03;3.07;;;;;;;;;;5054747;28;20416;-70
2021/04/10 02:06:29;;;;;;;3.00;2.30;;;;;;;;;;5055580;28;20416;-70
2021/04/10 02:08:55;;;;;;;3.07;2.37;;;;;;;;;;5054637;28;20397;-70
2021/04/10 02:11:22;;;;;;;3.30;2.27;;;;;;;;;;5035112;28;20497;-71
2021/04/10 02:13:49;;;;;;;5.67;2.83;;;;;;;;;;5035567;28;20392;-70
2021/04/10 02:16:15;;;;;;;5.40;3.17;;;;;;;;;;5072181;28;20428;-70
2021/04/10 02:18:42;;;;;;;3.23;2.50;;;;;;;;;;5075065;28;20408;-70
2021/04/10 02:21:09;;;;;;;4.37;2.83;;;;;;;;;;5072795;28;20454;-70
2021/04/10 02:23:39;;;;;;;3.27;2.27;;;;;;;;;;5075261;28;20403;-71
2021/04/10 02:26:05;;;;;;;6.07;2.77;;;;;;;;;;5055526;28;20669;-71
2021/04/10 02:28:31;;;;;;;3.67;2.40;;;;;;;;;;5055267;28;20765;-70
2021/04/10 02:30:57;;;;;;;4.20;3.07;;;;;;;;;;5054208;28;20477;-71
2021/04/10 02:33:32;;;;;;;3.93;2.80;;;;;;;;;;5055131;28;20435;-70
2021/04/10 02:35:59;;;;;;;4.10;3.27;;;;;;;;;;5054121;28;20431;-70
2021/04/10 02:38:26;;;;;;;4.23;2.90;;;;;;;;;;5036516;28;20857;-70
2021/04/10 02:41:00;;;;;;;9.70;3.13;;;;;;;;;;5053878;28;20552;-70
2021/04/10 02:43:29;;;;;;;6.53;2.87;;;;;;;;;;5054550;28;20382;-70
2021/04/10 02:45:59;;;;;;;5.23;3.10;;;;;;;;;;5068087;28;20978;-70
2021/04/10 02:48:27;;;;;;;5.00;2.50;;;;;;;;;;5074618;28;20475;-70
2021/04/10 02:50:54;;;;;;;5.10;2.90;;;;;;;;;;5072556;28;20463;-70
2021/04/10 02:53:21;;;;;;;5.03;3.30;;;;;;;;;;5075051;28;20733;-70
2021/04/10 02:55:49;;;;;;;3.40;2.70;;;;;;;;;;5059118;28;20428;-70
2021/04/10 02:58:16;;;;;;;5.70;2.70;;;;;;;;;;5053960;28;20414;-70
2021/04/10 03:00:46;;;;;;;7.57;2.73;;;;;;;;;;5052231;28;20807;-70
2021/04/10 03:03:12;;;;;;;4.20;2.97;;;;;;;;;;5053992;28;20786;-70
2021/04/10 03:05:40;;;;;;;4.47;3.03;;;;;;;;;;5064761;28;20826;-70
2021/04/10 03:08:07;;;;;;;4.00;2.80;;;;;;;;;;5074191;28;20403;-70
2021/04/10 03:10:33;;;;;;;9.13;2.60;;;;;;;;;;5072352;28;20431;-70
2021/04/10 03:13:00;;;;;;;5.00;3.27;;;;;;;;;;5073974;28;20447;-70
2021/04/10 03:15:26;;;;;;;4.20;2.60;;;;;;;;;;5062576;28;21047;-70
2021/04/10 03:17:53;;;;;;;5.83;2.53;;;;;;;;;;5073946;28;20403;-70
2021/04/10 03:20:21;;;;;;;8.20;3.67;;;;;;;;;;5064108;28;20456;-70
2021/04/10 03:22:47;;;;;;;4.00;2.63;;;;;;;;;;5054007;28;20493;-70
2021/04/10 03:25:15;;;;;;;9.40;2.90;;;;;;;;;;5052988;28;20467;-70
2021/04/10 03:27:42;;;;;;;4.93;2.63;;;;;;;;;;5053973;28;20765;-70
2021/04/10 03:30:09;;;;;;;6.83;3.10;;;;;;;;;;5052827;28;20413;-70
2021/04/10 03:32:35;;;;;;;6.30;2.60;;;;;;;;;;5035781;28;20449;-70
2021/04/10 03:35:01;;;;;;;4.50;2.80;;;;;;;;;;5051151;28;20507;-70
2021/04/10 03:37:30;;;;;;;9.20;3.17;;;;;;;;;;5053775;28;20457;-70
2021/04/10 03:39:57;;;;;;;3.20;2.27;;;;;;;;;;5052539;28;20497;-70
2021/04/10 03:42:31;;;;;;;8.03;3.83;;;;;;;;;;5053786;28;20507;-70
2021/04/10 03:44:57;;;;;;;5.33;3.17;;;;;;;;;;5051865;28;20522;-70
2021/04/10 03:47:23;;;;;;;7.93;2.87;;;;;;;;;;5052470;28;20436;-70
2021/04/10 03:49:49;;;;;;;8.00;4.20;;;;;;;;;;5052648;28;20422;-70
2021/04/10 03:52:15;;;;;;;6.40;3.20;;;;;;;;;;5053319;28;20909;-70
2021/04/10 03:54:41;;;;;;;5.93;2.50;;;;;;;;;;5051867;28;20409;-70
2021/04/10 03:57:07;;;;;;;7.27;4.07;;;;;;;;;;5053578;28;20416;-70
2021/04/10 03:59:33;;;;;;;5.20;3.40;;;;;;;;;;5051715;28;20511;-70
2021/04/10 04:01:59;;;;;;;4.10;2.73;;;;;;;;;;5053008;28;20464;-70
2021/04/10 04:04:25;;;;;;;5.60;3.20;;;;;;;;;;5053369;28;20804;-70
2021/04/10 04:06:51;;;;;;;4.03;2.90;;;;;;;;;;5052262;28;20433;-70
2021/04/10 04:09:17;;;;;;;5.40;3.27;;;;;;;;;;5052532;28;20477;-70
2021/04/10 04:11:43;;;;;;;4.90;3.03;;;;;;;;;;5051653;28;20464;-70
2021/04/10 04:14:09;;;;;;;6.97;3.83;;;;;;;;;;5053065;28;20412;-70
2021/04/10 04:16:35;;;;;;;4.30;2.80;;;;;;;;;;5069019;28;20427;-70
2021/04/10 04:19:01;;;;;;;6.00;2.87;;;;;;;;;;5073252;28;20407;-70
2021/04/10 04:21:27;;;;;;;6.47;2.60;;;;;;;;;;5056299;28;20472;-70
2021/04/10 04:23:53;;;;;;;7.20;3.70;;;;;;;;;;5053276;28;20983;-70
2021/04/10 04:26:19;;;;;;;5.40;3.40;;;;;;;;;;5065675;28;20782;-70
2021/04/10 04:28:45;;;;;;;6.13;3.27;;;;;;;;;;5073234;28;20403;-70
2021/04/10 04:31:11;;;;;;;4.43;2.93;;;;;;;;;;5070682;28;20439;-69
2021/04/10 04:33:37;;;;;;;4.97;2.83;;;;;;;;;;5072116;28;20452;-71
2021/04/10 04:36:03;;;;;;;5.87;3.23;;;;;;;;;;5051983;28;20515;-69
2021/04/10 04:38:29;;;;;;;6.63;4.40;;;;;;;;;;5052932;28;20495;-70
2021/04/10 04:40:55;;;;;;;6.10;3.60;;;;;;;;;;5052006;28;20607;-70
2021/04/10 04:43:21;;;;;;;4.63;3.10;;;;;;;;;;5052846;28;20495;-70
2021/04/10 04:45:47;;;;;;;8.20;3.73;;;;;;;;;;5051931;28;20427;-70
2021/04/10 04:48:13;;;;;;;7.20;3.23;;;;;;;;;;5052993;28;20409;-70
2021/04/10 04:50:39;;;;;;;7.80;3.70;;;;;;;;;;5052573;28;20536;-70
2021/04/10 04:53:05;;;;;;;4.73;2.87;;;;;;;;;;5052583;28;20430;-70
2021/04/10 04:55:31;;;;;;;5.00;4.10;;;;;;;;;;5052412;28;20503;-71
2021/04/10 04:57:57;;;;;;;5.73;3.17;;;;;;;;;;5035482;28;20435;-70
2021/04/10 05:00:24;;;;;;;7.47;3.63;;;;;;;;;;5055607;28;20943;-70
2021/04/10 05:02:50;;;;;;;3.60;2.80;;;;;;;;;;5073384;28;20423;-70
2021/04/10 05:05:16;;;;;;;5.67;2.90;;;;;;;;;;5070706;28;20466;-71
2021/04/10 05:07:42;;;;;;;8.10;3.27;;;;;;;;;;5076040;28;20401;-70
2021/04/10 05:10:09;;;;;;;3.50;2.67;;;;;;;;;;5069893;28;20465;-70
2021/04/10 05:12:35;;;;;;;9.00;3.40;;;;;;;;;;5076455;28;20444;-70
2021/04/10 05:15:01;;;;;;;5.37;3.10;;;;;;;;;;5061595;28;20430;-70
2021/04/10 05:17:27;;;;;;;9.10;3.00;;;;;;;;;;5056687;28;20423;-70
2021/04/10 05:19:53;;;;;;;5.33;3.10;;;;;;;;;;5056541;28;20827;-70
2021/04/10 05:22:19;;;;;;;9.53;3.87;;;;;;;;;;5055257;28;20480;-70
2021/04/10 05:24:45;;;;;;;3.63;2.40;;;;;;;;;;5056173;28;20408;-70
2021/04/10 05:27:11;;;;;;;3.83;3.10;;;;;;;;;;5055556;28;20486;-70
2021/04/10 05:29:37;;;;;;;5.80;3.30;;;;;;;;;;5038064;28;20467;-70
2021/04/10 05:32:03;;;;;;;4.70;2.70;;;;;;;;;;5052045;28;20446;-70
2021/04/10 05:34:29;;;;;;;9.13;3.50;;;;;;;;;;5054454;28;20428;-70
2021/04/10 05:36:55;;;;;;;4.60;2.57;;;;;;;;;;5054254;28;20466;-71
2021/04/10 05:39:21;;;;;;;6.73;3.53;;;;;;;;;;5054664;28;20423;-70
2021/04/10 05:41:47;;;;;;;4.17;2.60;;;;;;;;;;5050782;28;20510;-70
2021/04/10 05:44:13;;;;;;;8.13;3.13;;;;;;;;;;5055229;28;20447;-71
2021/04/10 05:46:39;;;;;;;6.00;2.90;;;;;;;;;;5053936;28;20452;-70
2021/04/10 05:49:05;;;;;;;5.20;3.40;;;;;;;;;;5051458;28;20980;-69
2021/04/10 05:51:31;;;;;;;4.30;2.90;;;;;;;;;;5054376;28;20941;-69
2021/04/10 05:53:57;;;;;;;4.87;3.03;;;;;;;;;;5056095;28;20420;-69
2021/04/10 05:56:23;;;;;;;6.23;2.57;;;;;;;;;;5055085;28;20423;-69
2021/04/10 05:58:49;;;;;;;5.93;2.90;;;;;;;;;;5055144;28;20416;-69
2021/04/10 06:01:18;;;;;;;7.67;3.27;;;;;;;;;;5053083;28;20953;-74
2021/04/10 06:03:44;;;;;;;6.17;3.33;;;;;;;;;;5053981;28;20416;-71
2021/04/10 06:06:11;;;;;;;4.57;3.20;;;;;;;;;;5052521;28;20434;-70
2021/04/10 06:08:38;;;;;;;9.13;3.50;;;;;;;;;;5055120;28;20436;-71
2021/04/10 06:11:04;;;;;;;4.63;2.87;;;;;;;;;;5054623;28;20425;-71
2021/04/10 06:13:30;;;;;;;8.33;4.00;;;;;;;;;;5055353;28;20408;-69
2021/04/10 06:15:56;;;;;;;12.93;3.40;;;;;;;;;;5054344;28;20420;-70
2021/04/10 06:18:22;;;;;;;4.20;2.87;;;;;;;;;;5054325;28;20400;-70
2021/04/10 06:20:48;;;;;;;4.10;2.37;;;;;;;;;;5054380;28;20450;-70
2021/04/10 06:23:14;;;;;;;4.00;2.90;;;;;;;;;;5055426;28;20480;-71
2021/04/10 06:25:40;;;;;;;4.53;2.63;;;;;;;;;;5056274;28;20418;-71
2021/04/10 06:28:06;;;;;;;6.10;2.73;;;;;;;;;;5075795;28;20522;-70
2021/04/10 06:30:33;;;;;;;7.20;3.10;;;;;;;;;;5072621;28;20785;-69
2021/04/10 06:32:59;;;;;;;4.20;2.83;;;;;;;;;;5054847;28;20770;-71
2021/04/10 06:35:25;;;;;;;4.30;3.03;;;;;;;;;;5054291;28;20398;-70
2021/04/10 06:37:51;;;;;;;6.00;2.63;;;;;;;;;;5055199;28;20769;-70
2021/04/10 06:40:17;;;;;;;6.43;3.30;;;;;;;;;;5055163;28;20761;-70
2021/04/10 06:42:43;;;;;;;5.57;3.00;;;;;;;;;;5053756;28;21087;-70
2021/04/10 06:45:09;;;;;;;7.60;2.83;;;;;;;;;;5037331;28;20408;-71
2021/04/10 06:47:35;;;;;;;4.93;2.97;;;;;;;;;;5053881;28;20537;-70
2021/04/10 06:50:04;;;;;;;6.43;2.77;;;;;;;;;;5054810;28;20433;-70
2021/04/10 06:52:31;;;;;;;8.00;3.10;;;;;;;;;;5054072;28;20457;-71
2021/04/10 06:55:00;;;;;;;5.90;3.30;;;;;;;;;;5053057;28;20750;-71
2021/04/10 06:57:28;;;;;;;8.57;3.57;;;;;;;;;;5053534;28;20424;-70
2021/04/10 07:00:20;;;;;;;3.77;2.67;;;;;;;;;;5054396;28;20961;-70
2021/04/10 07:02:48;;;;;;;6.60;2.97;;;;;;;;;;5050828;28;20488;-70
2021/04/10 07:05:14;;;;;;;7.00;2.87;;;;;;;;;;5054488;28;20409;-70
2021/04/10 07:07:43;;;;;;;4.90;2.97;;;;;;;;;;5053531;28;20447;-71
2021/04/10 07:10:09;;;;;;;4.87;2.47;;;;;;;;;;5053837;28;20500;-72
2021/04/10 07:12:37;;;;;;;5.53;2.40;;;;;;;;;;5053050;28;20483;-71
2021/04/10 07:15:04;;;;;;;3.53;2.17;;;;;;;;;;5054223;28;20775;-71
2021/04/10 07:17:30;;;;;;;4.80;2.50;;;;;;;;;;5053453;28;20422;-71
2021/04/10 07:19:56;;;;;;;5.53;3.00;;;;;;;;;;5054200;28;20416;-71
2021/04/10 07:22:22;;;;;;;3.87;2.60;;;;;;;;;;5052765;28;20465;-71
2021/04/10 07:24:49;;;;;;;7.60;1.90;;;;;;;;;;5054510;28;20412;-71
2021/04/10 07:27:20;;;;;;;6.10;2.00;;;;;;;;;;5053806;28;20456;-71
2021/04/10 07:29:49;;;;;;;2.47;1.90;;;;;;;;;;5054595;28;20417;-71
2021/04/10 07:32:35;;;;;;;3.63;2.23;;;;;;;;;;5065547;28;20447;-71
2021/04/10 07:35:03;;;;;;;3.60;1.77;;;;;;;;;;5073771;28;20397;-71
2021/04/10 07:37:32;;;;;;;2.73;1.70;;;;;;;;;;5058083;28;20446;-71
2021/04/10 07:39:58;;;;;;;4.50;2.00;;;;;;;;;;5054114;28;20401;-70
2021/04/10 07:42:25;;;;;;;6.37;2.07;;;;;;;;;;5052545;28;20779;-71
2021/04/10 07:44:51;;;;;;;3.73;1.90;;;;;;;;;;5054075;28;20405;-71
2021/04/10 07:47:17;;;;;;;2.80;2.10;;;;;;;;;;5052660;28;20981;-71
2021/04/10 07:49:43;;;;;;;2.93;2.10;;;;;;;;;;5053718;28;20401;-71
2021/04/10 07:52:09;;;;;;;2.60;1.83;;;;;;;;;;5052700;28;20868;-71
2021/04/10 07:54:38;;;;;;;7.63;2.23;;;;;;;;;;5053443;28;20417;-71
2021/04/10 07:57:06;;;;;;;6.07;1.97;;;;;;;;;;5042930;28;20484;-71
2021/04/10 07:59:33;;;;;;;3.97;2.90;;;;;;;;;;5053446;28;20951;-71
2021/04/10 08:02:12;;;;;;;3.80;1.97;;;;;;;;;;5051567;28;20495;-71
2021/04/10 08:04:42;;;;;;;4.07;1.80;;;;;;;;;;5054121;28;20887;-70
2021/04/10 08:07:12;;;;;;;4.40;1.60;;;;;;;;;;5052178;28;20430;-71
2021/04/10 08:09:39;;;;;;;4.07;1.80;;;;;;;;;;5053402;28;20406;-71
2021/04/10 08:12:15;;;;;;;7.53;2.40;;;;;;;;;;5051984;28;20475;-71
2021/04/10 08:14:45;;;;;;;3.50;1.80;;;;;;;;;;5053213;28;20393;-71
2021/04/10 08:17:12;;;;;;;4.90;1.93;;;;;;;;;;5052024;28;20442;-70
2021/04/10 08:19:38;;;;;;;3.53;1.77;;;;;;;;;;5052621;28;20432;-71
2021/04/10 08:22:07;;;;;;;8.00;2.13;;;;;;;;;;5052297;28;21005;-71
2021/04/10 08:24:35;;;;;;;7.00;1.83;;;;;;;;;;5053069;28;20909;-71
2021/04/10 08:27:04;;;;;;;2.80;1.50;;;;;;;;;;5052315;28;20414;-71
2021/04/10 08:29:31;;;;;;;3.03;1.97;;;;;;;;;;5052239;28;20398;-71
2021/04/10 08:31:58;;;;;;;3.97;1.70;;;;;;;;;;5052068;28;21037;-70
2021/04/10 08:34:24;;;;;;;4.90;1.80;;;;;;;;;;5052518;28;20761;-70
2021/04/10 08:36:58;;;;;;;6.53;2.37;;;;;;;;;;5052152;28;20431;-70
2021/04/10 08:39:27;;;;;;;4.00;1.70;;;;;;;;;;5053424;28;20392;-70
2021/04/10 08:41:54;;;;;;;7.00;2.10;;;;;;;;;;5060111;28;20818;-70
2021/04/10 08:44:23;;;;;;;6.30;2.00;;;;;;;;;;5076643;28;20404;-70
2021/04/10 08:46:49;;;;;;;4.00;2.20;;;;;;;;;;5069165;28;20533;-69
2021/04/10 08:49:17;;;;;;;3.30;2.03;;;;;;;;;;5056428;28;20405;-67
2021/04/10 08:51:43;;;;;;;4.30;1.80;;;;;;;;;;5055960;28;20992;-67
2021/04/10 08:54:11;;;;;;;7.47;2.23;;;;;;;;;;5056431;28;20413;-67
2021/04/10 08:56:38;;;;;;;2.90;1.90;;;;;;;;;;5055419;28;20417;-67
2021/04/10 08:59:11;;;;;;;2.73;1.60;;;;;;;;;;5056057;28;20442;-67
2021/04/10 09:01:39;;;;;;;3.67;2.13;;;;;;;;;;5055090;28;20464;-67
2021/04/10 09:04:05;;;;;;;4.77;1.87;;;;;;;;;;5056497;28;20402;-67
2021/04/10 09:06:31;;;;;;;3.27;1.90;;;;;;;;;;5055248;28;20948;-67
2021/04/10 09:09:12;;;;;;;3.53;1.73;;;;;;;;;;5054653;28;20459;-67
2021/04/10 09:11:43;;;;;;;4.20;1.43;;;;;;;;;;5054779;28;20887;-67
2021/04/10 09:14:09;;;;;;;3.07;1.70;;;;;;;;;;5055826;28;20409;-68
2021/04/10 09:16:47;;;;;;;2.70;1.77;;;;;;;;;;5055009;28;20418;-68
2021/04/10 09:19:20;;;;;;;2.90;1.80;;;;;;;;;;5055965;28;20451;-68
2021/04/10 09:21:46;;;;;;;4.77;2.00;;;;;;;;;;5058431;28;20464;-67
2021/04/10 09:24:19;;;;;;;5.80;2.27;;;;;;;;;;5076054;28;20397;-68
2021/04/10 09:27:02;;;;;;;5.43;2.00;;;;;;;;;;5070643;28;20418;-68
2021/04/10 09:29:48;;;;;;;3.70;1.80;;;;;;;;;;5055902;28;20402;-68
2021/04/10 09:32:28;;;;;;;8.53;2.40;;;;;;;;;;5061923;28;20481;-68
2021/04/10 09:34:59;;;;;;;3.70;2.00;;;;;;;;;;5076001;28;20424;-68
2021/04/10 09:37:25;;;;;;;4.87;2.00;;;;;;;;;;5065406;28;20432;-68
2021/04/10 09:40:03;;;;;;;3.60;1.87;;;;;;;;;;5055545;28;20882;-67
2021/04/10 09:42:37;;;;;;;4.50;1.90;;;;;;;;;;5072805;28;20848;-67
2021/04/10 09:45:07;;;;;;;5.70;2.43;;;;;;;;;;5075492;28;20400;-67
2021/04/10 09:47:51;;;;;;;4.33;2.13;;;;;;;;;;5063938;28;20432;-67
2021/04/10 09:50:17;;;;;;;2.97;1.80;;;;;;;;;;5055667;28;20429;-67
2021/04/10 09:52:43;;;;;;;3.70;2.23;;;;;;;;;;5053475;28;20449;-67
2021/04/10 09:55:12;;;;;;;3.13;2.00;;;;;;;;;;5056001;28;20398;-67
2021/04/10 09:57:38;;;;;;;3.33;2.33;;;;;;;;;;5054345;28;20509;-68
2021/04/10 10:00:05;;;;;;;7.43;2.20;;;;;;;;;;5055225;28;20590;-68
2021/04/10 10:02:31;;;;;;;3.63;1.80;;;;;;;;;;5055798;28;20902;-68
2021/04/10 10:04:57;;;;;;;5.10;2.37;;;;;;;;;;5075180;28;20435;-68
2021/04/10 10:07:23;;;;;;;3.57;1.70;;;;;;;;;;5070782;28;20454;-68
2021/04/10 10:10:05;;;;;;;5.30;2.83;;;;;;;;;;5055537;28;20397;-68
2021/04/10 10:12:31;;;;;;;6.00;2.17;;;;;;;;;;5054724;28;20466;-68
2021/04/10 10:14:58;;;;;;;3.73;2.23;;;;;;;;;;5055256;28;20444;-68
2021/04/10 10:17:27;;;;;;;5.30;2.00;;;;;;;;;;5054379;28;20434;-68
2021/04/10 10:20:13;;;;;;;6.33;2.20;;;;;;;;;;5055096;28;20398;-66
2021/04/10 10:22:39;;;;;;;9.37;2.10;;;;;;;;;;5054469;28;20855;-68
2021/04/10 10:25:06;;;;;;;5.23;2.70;;;;;;;;;;5054911;28;20433;-68
2021/04/10 10:27:52;;;;;;;3.30;1.83;;;;;;;;;;5055864;28;20502;-68
2021/04/10 10:30:19;;;;;;;3.40;1.90;;;;;;;;;;5073412;28;20393;-68
2021/04/10 10:32:45;;;;;;;5.03;2.17;;;;;;;;;;5057505;28;20590;-68
2021/04/10 10:35:12;;;;;;;2.73;1.80;;;;;;;;;;5074836;28;20408;-68
2021/04/10 10:37:39;;;;;;;3.37;2.20;;;;;;;;;;5073004;28;20426;-68
2021/04/10 10:40:06;;;;;;;5.70;2.57;;;;;;;;;;5075214;28;20744;-68
2021/04/10 10:42:32;;;;;;;5.80;2.30;;;;;;;;;;5071104;28;20560;-68
2021/04/10 10:44:58;;;;;;;4.53;2.40;;;;;;;;;;5054504;28;20406;-68
2021/04/10 10:47:25;;;;;;;3.50;2.30;;;;;;;;;;5053412;28;20409;-68
2021/04/10 10:49:51;;;;;;;4.40;1.87;;;;;;;;;;5054599;28;20402;-68
2021/04/10 10:52:18;;;;;;;3.40;2.47;;;;;;;;;;5054254;28;20418;-68
2021/04/10 10:54:46;;;;;;;9.30;2.90;;;;;;;;;;5054619;28;20444;-68
2021/04/10 10:57:13;;;;;;;3.80;2.80;;;;;;;;;;5054758;28;20397;-69
2021/04/10 10:59:40;;;;;;;4.80;2.50;;;;;;;;;;5052543;28;20426;-68
2021/04/10 11:02:08;;;;;;;4.40;2.80;;;;;;;;;;5054239;28;20464;-68
2021/04/10 11:04:35;;;;;;;6.00;2.47;;;;;;;;;;5052921;28;20795;-68
2021/04/10 11:07:02;;;;;;;5.70;2.40;;;;;;;;;;5074461;28;20954;-68
2021/04/10 11:09:29;;;;;;;3.77;2.10;;;;;;;;;;5072468;28;20452;-69
2021/04/10 11:11:57;;;;;;;3.27;2.17;;;;;;;;;;5074384;28;20919;-68
2021/04/10 11:14:30;;;;;;;4.17;2.50;;;;;;;;;;5071843;28;20905;-69
2021/04/10 11:16:57;;;;;;;8.90;2.93;;;;;;;;;;5056151;28;20409;-67
2021/04/10 11:19:30;;;;;;;4.40;2.33;;;;;;;;;;5067037;28;20436;-67
2021/04/10 11:21:58;;;;;;;4.97;2.50;;;;;;;;;;5074109;28;20464;-67
2021/04/10 11:24:34;;;;;;;5.70;2.33;;;;;;;;;;5071827;28;20432;-67
2021/04/10 11:27:09;;;;;;;4.10;2.37;;;;;;;;;;5073914;28;20397;-68
2021/04/10 11:29:35;;;;;;;3.63;2.10;;;;;;;;;;5055333;28;20428;-69
2021/04/10 11:32:09;;;;;;;3.90;2.33;;;;;;;;;;5053933;28;20418;-67
2021/04/10 11:34:36;;;;;;;4.80;2.60;;;;;;;;;;5052911;28;20547;-68
2021/04/10 11:37:03;;;;;;;6.93;2.50;;;;;;;;;;5052789;28;20438;-68
2021/04/10 11:39:29;;;;;;;6.43;2.70;;;;;;;;;;5052657;28;20426;-68
2021/04/10 11:41:56;;;;;;;4.00;2.97;;;;;;;;;;5053627;28;20561;-68
2021/04/10 11:44:23;;;;;;;4.57;3.20;;;;;;;;;;5052409;28;20448;-68
2021/04/10 11:46:58;;;;;;;6.03;2.63;;;;;;;;;;5053519;28;20398;-68
2021/04/10 11:49:25;;;;;;;3.00;2.07;;;;;;;;;;5052513;28;20801;-68
2021/04/10 11:51:51;;;;;;;3.20;2.17;;;;;;;;;;5053146;28;20426;-67
2021/04/10 11:54:29;;;;;;;4.27;2.57;;;;;;;;;;5052091;28;20972;-66
2021/04/10 11:56:55;;;;;;;6.43;3.37;;;;;;;;;;5052958;28;20590;-68
2021/04/10 11:59:30;;;;;;;7.20;2.77;;;;;;;;;;5046935;28;20452;-67
2021/04/10 12:02:00;;;;;;;3.80;2.30;;;;;;;;;;5073332;28;20482;-68
2021/04/10 12:04:27;;;;;;;5.40;2.67;;;;;;;;;;5055416;28;20426;-68
2021/04/10 12:07:03;;;;;;;6.63;2.93;;;;;;;;;;5053118;28;20402;-68
2021/04/10 12:09:29;;;;;;;6.43;2.40;;;;;;;;;;5051213;28;20418;-67
2021/04/10 12:11:59;;;;;;;7.13;2.60;;;;;;;;;;5053013;28;20840;-67
2021/04/10 12:14:25;;;;;;;4.43;2.80;;;;;;;;;;5051663;28;20936;-66
2021/04/10 12:16:51;;;;;;;5.70;2.53;;;;;;;;;;5052150;28;20402;-68
2021/04/10 12:19:18;;;;;;;7.83;2.60;;;;;;;;;;5051930;28;20434;-68
2021/04/10 12:21:44;;;;;;;8.40;3.30;;;;;;;;;;5052934;28;20453;-68
2021/04/10 12:24:11;;;;;;;3.23;2.50;;;;;;;;;;5053178;28;20430;-68
2021/04/10 12:26:37;;;;;;;4.13;2.33;;;;;;;;;;5036142;28;20847;-68
2021/04/10 12:29:04;;;;;;;11.80;2.90;;;;;;;;;;5052170;28;20441;-68
2021/04/10 12:31:30;;;;;;;4.83;2.33;;;;;;;;;;5053334;28;20517;-68
2021/04/10 12:33:56;;;;;;;5.07;2.60;;;;;;;;;;5052028;28;20425;-68
2021/04/10 12:36:22;;;;;;;4.67;3.17;;;;;;;;;;5052587;28;20463;-68
2021/04/10 12:38:48;;;;;;;9.73;3.10;;;;;;;;;;5051602;28;20429;-68
2021/04/10 12:41:15;;;;;;;4.53;2.37;;;;;;;;;;5052708;28;20975;-67
2021/04/10 12:43:41;;;;;;;6.00;3.40;;;;;;;;;;5050881;28;20422;-68
2021/04/10 12:46:08;;;;;;;3.23;2.10;;;;;;;;;;5052657;28;20409;-68
2021/04/10 12:48:34;;;;;;;3.60;2.20;;;;;;;;;;5051503;28;20432;-68
2021/04/10 12:51:00;;;;;;;3.50;2.30;;;;;;;;;;5052626;28;20416;-68
2021/04/10 12:53:26;;;;;;;5.23;2.33;;;;;;;;;;5050672;28;20520;-68
2021/04/10 12:55:52;;;;;;;4.83;2.50;;;;;;;;;;5052853;28;20410;-68
2021/04/10 12:58:18;;;;;;;7.43;3.57;;;;;;;;;;5051453;28;20401;-68
2021/04/10 13:00:44;;;;;;;5.67;3.27;;;;;;;;;;5053572;28;20493;-68
2021/04/10 13:03:10;;;;;;;4.13;2.70;;;;;;;;;;5053257;28;20460;-68
2021/04/10 13:05:36;;;;;;;3.30;2.60;;;;;;;;;;5052739;28;20420;-68
2021/04/10 13:08:03;;;;;;;4.60;2.87;;;;;;;;;;5052793;28;20910;-68
2021/04/10 13:10:29;;;;;;;7.87;3.00;;;;;;;;;;5051851;28;20436;-68
2021/04/10 13:12:55;;;;;;;5.87;2.60;;;;;;;;;;5052137;28;20457;-68
2021/04/10 13:15:21;;;;;;;7.53;2.30;;;;;;;;;;5051453;28;20790;-68
2021/04/10 13:17:47;;;;;;;5.73;3.07;;;;;;;;;;5051949;28;20918;-67
2021/04/10 13:20:17;;;;;;;7.30;3.00;;;;;;;;;;5051838;28;20518;-67
2021/04/10 13:22:43;;;;;;;4.57;2.00;;;;;;;;;;5052522;28;20548;-67
2021/04/10 13:25:10;;;;;;;6.93;3.37;;;;;;;;;;5051462;28;20434;-67
2021/04/10 13:27:37;;;;;;;4.10;2.43;;;;;;;;;;5053843;28;20493;-68
2021/04/10 13:30:04;;;;;;;4.33;2.77;;;;;;;;;;5055232;28;20425;-68
2021/04/10 13:32:30;;;;;;;4.77;2.87;;;;;;;;;;5055821;28;20425;-68
2021/04/10 13:34:55;;;;;;;3.50;2.67;;;;;;;;;;5055346;28;20435;-68
2021/04/10 13:37:22;;;;;;;5.23;2.67;;;;;;;;;;5055817;28;20412;-68
2021/04/10 13:39:48;;;;;;;12.83;3.60;;;;;;;;;;5054605;28;20591;-67
2021/04/10 13:42:14;;;;;;;6.07;3.10;;;;;;;;;;5054871;28;20548;-67
2021/04/10 13:44:40;;;;;;;5.30;2.43;;;;;;;;;;5054714;28;20425;-67
2021/04/10 13:47:06;;;;;;;3.73;2.33;;;;;;;;;;5055870;28;20490;-67
2021/04/10 13:49:32;;;;;;;7.20;2.80;;;;;;;;;;5054664;28;20979;-67
2021/04/10 13:51:58;;;;;;;8.70;3.50;;;;;;;;;;5054288;28;20492;-67
2021/04/10 13:54:24;;;;;;;3.80;2.67;;;;;;;;;;5055014;28;20772;-69
2021/04/10 13:56:50;;;;;;;5.90;3.23;;;;;;;;;;5055645;28;20903;-68
2021/04/10 13:59:16;;;;;;;4.67;2.47;;;;;;;;;;5054251;28;20802;-68
2021/04/10 14:01:42;;;;;;;5.07;2.80;;;;;;;;;;5055192;28;20453;-68
2021/04/10 14:04:08;;;;;;;5.57;2.50;;;;;;;;;;5054276;28;20414;-68
2021/04/10 14:06:35;;;;;;;4.40;2.80;;;;;;;;;;5055567;28;20771;-68
2021/04/10 14:09:01;;;;;;;5.87;2.80;;;;;;;;;;5054490;28;20449;-68
2021/04/10 14:11:29;;;;;;;7.10;3.50;;;;;;;;;;5055118;28;20449;-68
2021/04/10 14:13:55;;;;;;;4.67;3.10;;;;;;;;;;5054311;28;20507;-68
2021/04/10 14:16:22;;;;;;;6.40;3.20;;;;;;;;;;5054984;28;20441;-68
2021/04/10 14:18:48;;;;;;;4.30;3.07;;;;;;;;;;5053509;28;20595;-68
2021/04/10 14:21:15;;;;;;;4.90;3.20;;;;;;;;;;5055095;28;20879;-68
2021/04/10 14:23:42;;;;;;;5.67;2.70;;;;;;;;;;5054284;28;20405;-67
2021/04/10 14:26:10;;;;;;;5.33;3.27;;;;;;;;;;5070835;28;20417;-68
2021/04/10 14:28:36;;;;;;;6.27;3.80;;;;;;;;;;5075027;28;20889;-68
2021/04/10 14:31:02;;;;;;;4.70;2.97;;;;;;;;;;5057081;28;20421;-68
2021/04/10 14:33:28;;;;;;;7.57;3.03;;;;;;;;;;5054691;28;20408;-68
2021/04/10 14:35:54;;;;;;;7.30;4.17;;;;;;;;;;5054016;28;20463;-68
2021/04/10 14:38:21;;;;;;;9.67;3.27;;;;;;;;;;5054858;28;20406;-68
2021/04/10 14:40:47;;;;;;;5.63;3.40;;;;;;;;;;5053458;28;20435;-68
2021/04/10 14:43:14;;;;;;;7.13;3.50;;;;;;;;;;5054507;28;20425;-68
2021/04/10 14:45:42;;;;;;;7.93;3.77;;;;;;;;;;5053080;28;20990;-68